Time;durP1;ratioP1;P1;durP2;ratioP2;P2;SDS_P1;SDS_P2;PMS_P1;PMS_P2;Temp;Humidity;BMP_temperature;BMP_pressure;BME280_temperature;BME280_humidity;BME280_pressure;Samples;Min_cycle;Max_cycle;Signal;HPM_P1;HPM_P2
2022/08/25 00:01:59;;;;;;;10.90;6.82;;;19.20;99.90;;;;;;5021369;28;20495;-81
2022/08/25 00:04:25;;;;;;;14.90;8.32;;;19.20;99.90;;;;;;5034416;28;20045;-81
2022/08/25 00:06:54;;;;;;;11.43;7.38;;;19.10;99.90;;;;;;5017692;28;20069;-81
2022/08/25 00:09:22;;;;;;;12.93;7.50;;;19.10;99.90;;;;;;5034169;28;20053;-80
2022/08/25 00:11:48;;;;;;;13.82;7.72;;;19.20;99.90;;;;;;5033612;28;20041;-80
2022/08/25 00:14:19;;;;;;;9.60;6.07;;;19.20;99.90;;;;;;5017396;28;20072;-80
2022/08/25 00:16:45;;;;;;;12.80;8.30;;;19.20;99.90;;;;;;5000881;28;20139;-81
2022/08/25 00:19:15;;;;;;;11.88;6.70;;;19.20;99.90;;;;;;5031547;28;20120;-81
2022/08/25 00:21:43;;;;;;;10.70;6.65;;;19.20;99.90;;;;;;5017514;28;20156;-81
2022/08/25 00:24:10;;;;;;;12.10;6.82;;;19.20;99.90;;;;;;5033546;28;20103;-81
2022/08/25 00:26:41;;;;;;;9.57;6.00;;;19.20;99.90;;;;;;5017138;28;20049;-81
2022/08/25 00:29:08;;;;;;;10.35;5.70;;;19.20;99.90;;;;;;5045336;28;20037;-81
2022/08/25 00:31:34;;;;;;;11.48;6.50;;;19.30;99.90;;;;;;5016869;28;20435;-81
2022/08/25 00:34:01;;;;;;;12.80;7.88;;;19.20;99.90;;;;;;5015979;28;20042;-80
2022/08/25 00:36:27;;;;;;;10.70;7.15;;;19.20;99.90;;;;;;5017163;28;20037;-80
2022/08/25 00:38:54;;;;;;;9.07;6.43;;;19.20;99.90;;;;;;5033530;28;20451;-80
2022/08/25 00:41:22;;;;;;;14.68;8.68;;;19.20;99.90;;;;;;5017201;28;20095;-80
2022/08/25 00:43:51;;;;;;;13.15;8.02;;;19.20;99.90;;;;;;5016738;28;20443;-82
2022/08/25 00:46:24;;;;;;;14.02;8.15;;;19.20;99.90;;;;;;5032741;28;20037;-82
2022/08/25 00:48:56;;;;;;;14.82;9.38;;;19.20;99.90;;;;;;5014005;28;20554;-82
2022/08/25 00:51:39;;;;;;;16.77;10.23;;;19.20;99.90;;;;;;5013486;28;20061;-82
2022/08/25 00:54:07;;;;;;;17.30;9.90;;;19.20;99.90;;;;;;5019724;28;20037;-82
2022/08/25 00:56:34;;;;;;;17.85;9.75;;;19.20;99.90;;;;;;5033302;28;20414;-82
2022/08/25 00:59:01;;;;;;;22.60;10.23;;;19.20;99.90;;;;;;5033455;28;20133;-82
2022/08/25 01:01:27;;;;;;;12.50;7.30;;;19.10;99.90;;;;;;5033337;28;20033;-80
2022/08/25 01:03:53;;;;;;;13.55;8.15;;;19.20;99.90;;;;;;5016219;28;20140;-80
2022/08/25 01:06:19;;;;;;;14.32;9.35;;;19.10;99.90;;;;;;5032787;28;20038;-81
2022/08/25 01:08:45;;;;;;;12.80;7.85;;;19.10;99.90;;;;;;5000489;28;20180;-80
2022/08/25 01:11:11;;;;;;;16.60;8.80;;;19.10;99.90;;;;;;5016466;28;20116;-80
2022/08/25 01:13:44;;;;;;;16.23;9.63;;;19.10;99.90;;;;;;5032815;28;20049;-80
2022/08/25 01:16:11;;;;;;;17.67;10.52;;;19.00;99.90;;;;;;5029483;28;20037;-80
2022/08/25 01:19:04;;;;;;;19.60;9.70;;;18.90;99.90;;;;;;5016506;28;20534;-80
2022/08/25 01:21:36;;;;;;;16.70;10.70;;;18.90;99.90;;;;;;5012324;28;20050;-80
2022/08/25 01:24:03;;;;;;;16.08;8.70;;;18.80;99.90;;;;;;5015910;28;20038;-80
2022/08/25 01:26:32;;;;;;;14.45;8.10;;;18.80;99.90;;;;;;5032467;28;20045;-80
2022/08/25 01:31:45;;;;;;;23.48;10.57;;;18.70;99.90;;;;;;5032735;28;20077;-80
2022/08/25 01:34:14;;;;;;;14.70;8.45;;;18.70;99.90;;;;;;5032821;28;20049;-80
2022/08/25 01:36:41;;;;;;;16.13;9.52;;;18.70;99.90;;;;;;5016225;28;20490;-80
2022/08/25 01:39:08;;;;;;;12.63;7.90;;;18.60;99.90;;;;;;5016020;28;20411;-80
2022/08/25 01:41:35;;;;;;;13.63;7.80;;;18.60;99.90;;;;;;5032598;28;20053;-80
2022/08/25 01:44:04;;;;;;;15.88;9.43;;;18.60;99.90;;;;;;5032670;28;20411;-80
2022/08/25 01:46:33;;;;;;;16.77;8.73;;;18.70;99.90;;;;;;5016332;28;20052;-80
2022/08/25 01:49:01;;;;;;;10.52;7.32;;;18.60;99.90;;;;;;5016718;28;20037;-80
2022/08/25 01:51:29;;;;;;;12.07;7.10;;;18.60;99.90;;;;;;5041826;28;20053;-82
2022/08/25 01:53:55;;;;;;;9.65;5.97;;;18.60;99.90;;;;;;5032780;28;20487;-82
2022/08/25 01:56:21;;;;;;;8.45;4.68;;;18.60;99.90;;;;;;5032418;28;20073;-82
2022/08/25 01:58:48;;;;;;;10.88;5.75;;;18.60;99.90;;;;;;5015631;28;20419;-82
2022/08/25 02:01:18;;;;;;;12.50;7.53;;;18.60;99.90;;;;;;5032514;28;20395;-82
2022/08/25 02:03:46;;;;;;;9.00;5.40;;;18.50;99.90;;;;;;5032018;28;20065;-82
2022/08/25 02:06:14;;;;;;;11.25;5.68;;;18.50;99.90;;;;;;5031782;28;20079;-82
2022/08/25 02:08:41;;;;;;;8.95;4.80;;;18.50;99.90;;;;;;5035391;28;20049;-82
2022/08/25 02:11:13;;;;;;;10.23;5.65;;;18.40;99.90;;;;;;5036303;28;20084;-82
2022/08/25 02:13:40;;;;;;;9.35;5.28;;;18.40;99.90;;;;;;5011369;28;20033;-82
2022/08/25 02:16:07;;;;;;;7.38;4.18;;;18.40;99.90;;;;;;5036156;28;20383;-82
2022/08/25 02:18:35;;;;;;;10.32;4.80;;;18.30;99.90;;;;;;5019868;28;20037;-82
2022/08/25 02:21:01;;;;;;;6.70;4.40;;;18.30;99.90;;;;;;5036592;28;20091;-82
2022/08/25 02:23:27;;;;;;;7.13;3.92;;;18.30;99.90;;;;;;5036212;28;20534;-82
2022/08/25 02:25:53;;;;;;;7.38;4.68;;;18.20;99.90;;;;;;5003494;28;20037;-82
2022/08/25 02:28:18;;;;;;;8.20;4.22;;;18.30;99.90;;;;;;5036001;28;20130;-82
2022/08/25 02:30:46;;;;;;;6.60;4.32;;;18.20;99.90;;;;;;5035107;28;20391;-82
2022/08/25 02:33:12;;;;;;;6.28;3.90;;;18.20;99.90;;;;;;5035842;28;20046;-82
2022/08/25 02:35:38;;;;;;;4.22;3.30;;;18.20;99.90;;;;;;5019205;28;20041;-82
2022/08/25 02:38:04;;;;;;;5.65;3.42;;;18.10;99.90;;;;;;5035639;28;20048;-82
2022/08/25 02:40:30;;;;;;;6.43;3.92;;;18.20;99.90;;;;;;5035989;28;20041;-81
2022/08/25 02:42:56;;;;;;;5.60;3.53;;;18.10;99.90;;;;;;5035928;28;20452;-80
2022/08/25 02:45:22;;;;;;;6.03;3.47;;;18.10;99.90;;;;;;5019072;28;20045;-80
2022/08/25 02:47:48;;;;;;;6.43;3.50;;;18.00;99.90;;;;;;5034529;28;20356;-80
2022/08/25 02:50:14;;;;;;;5.22;3.42;;;18.00;99.90;;;;;;5019020;28;20119;-80
2022/08/25 02:52:40;;;;;;;5.78;3.63;;;18.00;99.90;;;;;;5018582;28;20053;-80
2022/08/25 02:55:08;;;;;;;4.55;3.10;;;18.00;99.90;;;;;;5019106;28;20037;-80
2022/08/25 02:57:37;;;;;;;6.63;3.83;;;18.00;99.90;;;;;;5002448;28;20442;-82
2022/08/25 03:00:04;;;;;;;6.28;4.00;;;18.00;99.90;;;;;;5000633;28;20081;-82
2022/08/25 03:02:30;;;;;;;6.38;3.33;;;17.90;99.90;;;;;;5028269;28;20048;-82
2022/08/25 03:04:56;;;;;;;5.50;3.00;;;17.90;99.90;;;;;;4998968;28;20396;-82
2022/08/25 03:07:22;;;;;;;5.03;2.97;;;17.90;99.90;;;;;;4982829;28;20046;-82
2022/08/25 03:09:48;;;;;;;4.72;3.22;;;17.90;99.90;;;;;;5000226;28;20046;-82
2022/08/25 03:12:14;;;;;;;5.72;3.00;;;17.90;99.90;;;;;;5000042;28;20049;-82
2022/08/25 03:14:39;;;;;;;5.72;3.20;;;17.90;99.90;;;;;;5018154;28;20083;-80
2022/08/25 03:17:06;;;;;;;4.50;3.22;;;17.90;99.90;;;;;;5018528;28;20399;-80
2022/08/25 03:19:32;;;;;;;5.05;3.30;;;17.80;99.90;;;;;;5016711;28;20132;-80
2022/08/25 03:21:58;;;;;;;5.22;3.25;;;17.80;99.90;;;;;;5018152;28;20069;-80
2022/08/25 03:24:25;;;;;;;4.30;2.78;;;17.80;99.90;;;;;;5018197;28;20041;-80
2022/08/25 03:26:57;;;;;;;4.07;2.70;;;17.80;99.90;;;;;;5018444;28;20049;-80
2022/08/25 03:29:25;;;;;;;6.38;2.67;;;17.90;99.90;;;;;;5002093;28;20399;-80
2022/08/25 03:31:53;;;;;;;4.13;2.65;;;17.90;99.90;;;;;;5017524;28;20048;-82
2022/08/25 03:34:24;;;;;;;4.30;2.55;;;17.90;99.90;;;;;;5018064;28;20060;-82
2022/08/25 03:36:52;;;;;;;5.97;3.03;;;17.90;99.90;;;;;;5018258;28;20414;-82
2022/08/25 03:39:19;;;;;;;4.80;2.83;;;17.90;99.90;;;;;;5017572;28;20452;-82
2022/08/25 03:41:46;;;;;;;5.65;2.65;;;17.80;99.90;;;;;;5018433;28;20041;-82
2022/08/25 03:44:12;;;;;;;4.32;2.63;;;17.90;99.90;;;;;;5017814;28;20072;-82
2022/08/25 03:46:44;;;;;;;6.18;2.67;;;17.90;99.90;;;;;;5017918;28;20041;-82
2022/08/25 03:49:18;;;;;;;4.45;2.42;;;17.90;99.90;;;;;;5001215;28;20041;-80
2022/08/25 03:51:46;;;;;;;4.63;2.80;;;17.90;99.90;;;;;;5044975;28;20055;-80
2022/08/25 03:54:17;;;;;;;5.75;2.53;;;17.90;99.90;;;;;;5034511;28;20395;-80
2022/08/25 03:56:43;;;;;;;3.10;2.05;;;17.90;99.90;;;;;;5036651;28;20118;-80
2022/08/25 03:59:08;;;;;;;4.53;2.60;;;17.90;99.90;;;;;;5021114;28;20048;-80
2022/08/25 04:01:36;;;;;;;3.55;2.05;;;17.90;99.90;;;;;;5020839;28;20518;-80
2022/08/25 04:04:02;;;;;;;4.43;2.20;;;17.80;99.90;;;;;;5033517;28;20046;-82
2022/08/25 04:06:28;;;;;;;3.22;2.17;;;17.70;99.90;;;;;;5015411;28;20056;-82
2022/08/25 04:08:56;;;;;;;5.40;2.10;;;17.70;99.90;;;;;;5021083;28;20037;-82
2022/08/25 04:11:23;;;;;;;4.78;2.33;;;17.70;99.90;;;;;;5047670;28;20043;-82
2022/08/25 04:13:50;;;;;;;3.53;2.22;;;17.60;99.90;;;;;;5015694;28;20068;-82
2022/08/25 04:16:21;;;;;;;3.55;2.20;;;17.60;99.90;;;;;;5029772;28;20044;-82
2022/08/25 04:18:48;;;;;;;4.80;2.45;;;17.50;99.90;;;;;;5020792;28;20052;-82
2022/08/25 04:21:16;;;;;;;2.95;2.10;;;17.50;99.90;;;;;;5039826;28;20044;-81
2022/08/25 04:23:43;;;;;;;2.85;2.00;;;17.50;99.90;;;;;;5053797;28;20049;-81
2022/08/25 04:26:21;;;;;;;3.78;2.22;;;17.50;99.90;;;;;;5050348;28;20072;-81
2022/08/25 04:28:48;;;;;;;4.32;2.25;;;17.50;99.90;;;;;;5008609;28;20034;-80
2022/08/25 04:31:15;;;;;;;3.72;2.40;;;17.50;99.90;;;;;;5031234;28;20131;-80
2022/08/25 04:33:41;;;;;;;5.07;2.80;;;17.50;99.90;;;;;;5037187;28;20033;-80
2022/08/25 04:36:10;;;;;;;4.88;2.40;;;17.40;99.90;;;;;;5040511;28;20509;-80
2022/08/25 04:38:36;;;;;;;4.15;2.35;;;17.40;99.90;;;;;;5020067;28;20135;-82
2022/08/25 04:41:05;;;;;;;5.85;2.63;;;17.40;99.90;;;;;;5036960;28;20037;-82
2022/08/25 04:43:32;;;;;;;5.25;2.80;;;17.50;99.90;;;;;;5024342;28;20132;-82
2022/08/25 04:45:59;;;;;;;6.50;2.45;;;17.50;99.90;;;;;;5020759;28;20106;-82
2022/08/25 04:48:25;;;;;;;5.05;2.45;;;17.50;99.90;;;;;;5004788;28;20545;-82
2022/08/25 04:50:51;;;;;;;7.93;3.00;;;17.60;99.90;;;;;;5013450;28;20137;-82
2022/08/25 04:53:17;;;;;;;3.63;2.22;;;17.60;99.90;;;;;;5010901;28;20124;-82
2022/08/25 04:55:45;;;;;;;5.22;2.72;;;17.60;99.90;;;;;;5032082;28;20171;-82
2022/08/25 04:58:12;;;;;;;6.10;2.70;;;17.60;99.90;;;;;;5009062;28;20392;-82
2022/08/25 05:00:38;;;;;;;5.10;2.58;;;19.00;99.90;;;;;;5016535;28;20049;-82
2022/08/25 05:03:04;;;;;;;7.25;2.45;;;17.70;99.90;;;;;;5033568;28;20041;-82
2022/08/25 05:05:34;;;;;;;3.78;2.42;;;17.70;99.90;;;;;;5008652;28;20045;-82
2022/08/25 05:07:59;;;;;;;3.63;2.30;;;17.70;99.90;;;;;;5032738;28;20041;-82
2022/08/25 05:10:25;;;;;;;4.50;2.60;;;17.80;99.90;;;;;;5016851;28;20116;-80
2022/08/25 05:12:51;;;;;;;3.95;2.38;;;17.80;99.90;;;;;;5032745;28;20041;-80
2022/08/25 05:18:04;;;;;;;4.95;2.70;;;17.90;99.90;;;;;;5032352;28;20045;-80
2022/08/25 05:20:30;;;;;;;4.47;2.63;;;18.00;99.90;;;;;;5032010;28;20041;-80
2022/08/25 05:22:56;;;;;;;4.47;2.58;;;18.00;99.90;;;;;;5018277;28;20124;-80
2022/08/25 05:25:22;;;;;;;4.90;2.80;;;18.10;99.90;;;;;;5013211;28;20042;-80
2022/08/25 05:27:48;;;;;;;5.70;2.88;;;18.10;99.90;;;;;;5022959;28;20044;-82
2022/08/25 05:30:15;;;;;;;3.90;2.50;;;18.20;99.90;;;;;;5032646;28;20041;-82
2022/08/25 05:32:40;;;;;;;4.10;2.50;;;18.30;99.90;;;;;;5030705;28;20049;-82
2022/08/25 05:35:07;;;;;;;4.72;2.40;;;18.30;99.90;;;;;;5016394;28;20042;-82
2022/08/25 05:37:32;;;;;;;5.68;2.92;;;18.40;99.90;;;;;;4999148;28;20045;-82
2022/08/25 05:39:59;;;;;;;4.63;2.45;;;18.50;99.90;;;;;;5015259;28;20102;-82
2022/08/25 05:42:27;;;;;;;5.18;2.60;;;18.60;99.90;;;;;;5030967;28;20075;-82
2022/08/25 05:44:54;;;;;;;4.30;2.63;;;18.60;99.90;;;;;;5013041;28;20041;-80
2022/08/25 05:47:20;;;;;;;4.80;2.70;;;18.70;99.90;;;;;;4995798;28;20046;-80
2022/08/25 05:49:46;;;;;;;5.78;2.75;;;18.80;99.90;;;;;;5032335;22;20531;-80
2022/08/25 05:52:12;;;;;;;4.82;2.70;;;18.90;99.90;;;;;;5054257;28;20137;-81
2022/08/25 05:54:38;;;;;;;5.88;2.70;;;19.00;99.90;;;;;;5054155;28;20035;-81
2022/08/25 05:57:05;;;;;;;3.55;2.33;;;19.10;99.90;;;;;;5035245;28;20037;-81
2022/08/25 05:59:31;;;;;;;4.18;2.15;;;19.20;99.90;;;;;;5018686;28;20045;-81
2022/08/25 06:04:42;;;;;;;4.28;2.60;;;19.30;99.90;;;;;;5055494;28;20049;-82
2022/08/25 06:07:08;;;;;;;5.90;3.15;;;19.50;99.90;;;;;;5044904;28;20048;-83
2022/08/25 06:09:37;;;;;;;6.43;2.40;;;19.50;99.90;;;;;;5019277;28;20040;-83
2022/08/25 06:12:04;;;;;;;5.03;2.85;;;19.70;99.90;;;;;;5050804;28;20505;-82
2022/08/25 06:14:29;;;;;;;5.07;2.55;;;19.80;99.90;;;;;;5028344;28;20052;-83
2022/08/25 06:16:55;;;;;;;5.70;2.80;;;19.90;99.90;;;;;;5051165;28;20033;-81
2022/08/25 06:19:22;;;;;;;5.57;2.22;;;20.10;99.90;;;;;;5036869;28;20079;-81
2022/08/25 06:21:48;;;;;;;4.55;2.30;;;20.20;99.90;;;;;;5055485;28;20391;-81
2022/08/25 06:24:14;;;;;;;5.32;2.08;;;20.40;99.90;;;;;;5055316;28;20039;-81
2022/08/25 06:26:40;;;;;;;3.22;2.33;;;20.60;99.90;;;;;;5038664;28;20048;-81
2022/08/25 06:29:05;;;;;;;3.13;2.00;;;21.00;99.90;;;;;;5036820;28;20429;-81
2022/08/25 06:31:31;;;;;;;5.60;2.20;;;22.60;99.90;;;;;;5055719;28;20066;-81
2022/08/25 06:33:57;;;;;;;4.82;2.45;;;24.10;99.90;;;;;;5039426;28;20037;-81
2022/08/25 06:36:23;;;;;;;4.93;2.00;;;25.50;99.60;;;;;;5042628;28;20147;-81
2022/08/25 06:38:49;;;;;;;4.78;2.13;;;26.70;98.80;;;;;;5036198;28;20549;-81
2022/08/25 06:41:15;;;;;;;4.70;2.35;;;27.60;95.70;;;;;;5053920;28;20036;-81
2022/08/25 06:43:41;;;;;;;3.22;1.85;;;28.10;92.90;;;;;;5038435;28;20394;-81
2022/08/25 06:46:13;;;;;;;2.75;1.75;;;28.90;92.70;;;;;;5037500;28;20040;-81
2022/08/25 06:48:40;;;;;;;4.07;2.05;;;29.50;91.70;;;;;;5051476;28;20090;-81
2022/08/25 06:51:12;;;;;;;4.05;1.73;;;29.70;90.70;;;;;;5028377;28;20083;-81
2022/08/25 06:53:37;;;;;;;3.22;1.83;;;30.60;90.60;;;;;;5043522;28;20029;-81
2022/08/25 06:56:04;;;;;;;5.15;2.47;;;30.80;88.50;;;;;;5048580;28;20099;-81
2022/08/25 06:58:31;;;;;;;4.57;2.20;;;30.70;84.80;;;;;;5049136;28;20071;-81
2022/08/25 07:01:12;;;;;;;3.45;1.67;;;30.30;84.50;;;;;;5051741;28;20041;-81
2022/08/25 07:03:38;;;;;;;3.03;1.73;;;30.90;85.40;;;;;;5035061;28;20470;-82
2022/08/25 07:06:05;;;;;;;3.45;2.00;;;30.80;83.70;;;;;;5055450;28;20047;-81
2022/08/25 07:08:31;;;;;;;4.32;2.08;;;30.70;83.00;;;;;;5039188;28;20041;-81
2022/08/25 07:10:57;;;;;;;3.05;1.90;;;31.10;84.90;;;;;;5057103;28;20040;-81
2022/08/25 07:13:23;;;;;;;5.28;1.83;;;31.60;82.10;;;;;;5045494;28;20033;-81
2022/08/25 07:15:53;;;;;;;4.40;2.15;;;31.80;82.70;;;;;;5040977;28;20067;-81
2022/08/25 07:18:19;;;;;;;4.80;2.40;;;31.30;80.60;;;;;;5054349;28;20048;-81
2022/08/25 07:20:45;;;;;;;2.38;1.63;;;32.00;81.70;;;;;;5039116;28;20048;-81
2022/08/25 07:23:11;;;;;;;2.97;1.83;;;32.40;81.30;;;;;;5049448;28;20426;-81
2022/08/25 07:25:36;;;;;;;4.10;1.90;;;31.90;79.80;;;;;;5047125;28;20112;-82
2022/08/25 07:28:03;;;;;;;2.10;1.52;;;32.00;79.50;;;;;;5042519;28;20098;-84
2022/08/25 07:30:29;;;;;;;5.57;1.70;;;33.00;80.10;;;;;;5038742;28;20079;-82
2022/08/25 07:32:55;;;;;;;2.90;1.77;;;33.10;80.10;;;;;;5033375;28;20067;-82
2022/08/25 07:35:23;;;;;;;4.25;2.05;;;33.60;78.40;;;;;;5050422;28;20433;-82
2022/08/25 07:37:51;;;;;;;5.85;1.95;;;33.90;79.00;;;;;;5038296;28;20119;-82
2022/08/25 07:40:22;;;;;;;4.88;1.83;;;33.40;76.20;;;;;;5056557;28;20044;-80
2022/08/25 07:42:50;;;;;;;18.15;3.35;;;34.00;76.90;;;;;;5043373;28;20048;-79
2022/08/25 07:45:16;;;;;;;3.22;1.90;;;34.20;77.00;;;;;;5035805;28;20040;-79
2022/08/25 07:47:42;;;;;;;2.63;1.80;;;35.10;75.80;;;;;;5057206;28;20047;-80
2022/08/25 07:50:11;;;;;;;4.03;1.73;;;35.70;75.00;;;;;;5048084;28;20061;-80
2022/08/25 07:52:38;;;;;;;3.70;1.77;;;35.80;74.00;;;;;;5038422;28;20052;-80
2022/08/25 07:55:05;;;;;;;3.80;1.83;;;36.10;73.60;;;;;;5057440;28;20097;-80
2022/08/25 07:57:31;;;;;;;3.40;1.67;;;35.90;72.40;;;;;;5040753;28;20109;-80
2022/08/25 07:59:57;;;;;;;4.88;1.63;;;36.30;73.60;;;;;;5053639;28;20494;-80
2022/08/25 08:02:23;;;;;;;3.63;2.00;;;37.00;71.80;;;;;;5050285;28;20037;-80
2022/08/25 08:04:51;;;;;;;4.20;1.70;;;36.10;72.60;;;;;;5051006;28;20487;-80
2022/08/25 08:07:23;;;;;;;15.38;2.05;;;35.90;70.30;;;;;;5039251;28;20538;-80
2022/08/25 08:09:49;;;;;;;4.07;1.60;;;36.30;71.90;;;;;;5058005;28;20036;-80
2022/08/25 08:12:15;;;;;;;3.58;1.90;;;36.40;70.50;;;;;;5057332;28;20040;-80
2022/08/25 08:14:41;;;;;;;2.38;1.58;;;35.80;70.80;;;;;;5034694;28;20029;-79
2022/08/25 08:17:09;;;;;;;3.22;1.77;;;35.20;70.80;;;;;;5037375;28;20048;-79
2022/08/25 08:19:35;;;;;;;3.63;1.50;;;36.20;73.10;;;;;;5048542;28;20106;-79
2022/08/25 08:22:03;;;;;;;3.10;1.70;;;36.30;70.30;;;;;;5048906;28;20067;-79
2022/08/25 08:24:31;;;;;;;1.92;1.40;;;36.20;69.70;;;;;;5046008;28;20781;-79
2022/08/25 08:26:57;;;;;;;5.40;1.90;;;36.60;69.30;;;;;;5051438;28;20041;-79
2022/08/25 08:29:23;;;;;;;4.32;1.85;;;36.40;70.10;;;;;;5051225;28;20123;-79
2022/08/25 08:31:49;;;;;;;5.72;2.03;;;37.00;71.10;;;;;;5036597;28;20119;-81
2022/08/25 08:34:15;;;;;;;2.63;1.92;;;36.60;68.70;;;;;;5036940;28;20086;-82
2022/08/25 08:36:41;;;;;;;2.35;1.65;;;36.60;70.00;;;;;;5038930;28;20036;-82
2022/08/25 08:39:07;;;;;;;3.08;2.03;;;36.40;69.90;;;;;;5039784;28;20051;-81
2022/08/25 08:44:32;;;;;;;5.00;2.17;;;36.80;67.80;;;;;;5055739;28;20032;-81
2022/08/25 08:47:21;;;;;;;3.05;1.92;;;36.30;68.90;;;;;;5040168;28;20397;-81
2022/08/25 08:50:27;;;;;;;3.22;1.98;;;36.30;69.30;;;;;;5039348;28;20036;-81
2022/08/25 08:53:07;;;;;;;3.22;2.03;;;36.40;68.20;;;;;;5036589;28;20380;-81
2022/08/25 08:55:39;;;;;;;3.30;1.77;;;36.20;68.40;;;;;;5029393;28;20429;-81
2022/08/25 08:58:31;;;;;;;3.33;1.55;;;36.40;68.10;;;;;;5056856;28;20381;-82
2022/08/25 09:00:58;;;;;;;2.78;1.55;;;36.10;67.30;;;;;;5056603;28;20166;-81
2022/08/25 09:03:43;;;;;;;1.75;1.42;;;36.70;68.70;;;;;;5056650;28;20049;-80
2022/08/25 09:06:38;;;;;;;2.85;1.80;;;37.40;68.00;;;;;;5032568;28;20320;-79
2022/08/25 09:09:05;;;;;;;3.65;1.98;;;37.80;66.80;;;;;;5047841;28;20051;-79
2022/08/25 09:11:31;;;;;;;2.25;1.67;;;37.90;66.40;;;;;;5038817;28;20041;-79
2022/08/25 09:14:05;;;;;;;2.90;1.60;;;37.70;65.60;;;;;;5055461;28;20488;-79
2022/08/25 09:16:55;;;;;;;2.50;1.60;;;38.10;65.20;;;;;;5054162;28;20427;-79
2022/08/25 09:19:42;;;;;;;2.28;1.38;;;38.40;65.80;;;;;;5050505;28;20039;-79
2022/08/25 09:22:29;;;;;;;2.78;1.50;;;38.70;64.00;;;;;;5036541;28;20122;-81
2022/08/25 09:25:10;;;;;;;3.58;2.13;;;38.30;63.60;;;;;;5036300;28;20040;-81
2022/08/25 09:27:38;;;;;;;2.83;1.42;;;38.40;64.60;;;;;;5047642;28;20044;-81
2022/08/25 09:30:08;;;;;;;2.38;1.42;;;38.50;62.50;;;;;;5039303;28;20067;-81
2022/08/25 09:32:41;;;;;;;3.92;1.70;;;37.20;61.50;;;;;;5056153;28;20094;-81
2022/08/25 09:35:14;;;;;;;2.60;1.90;;;36.90;63.10;;;;;;5055613;28;20033;-81
2022/08/25 09:37:40;;;;;;;2.88;1.70;;;37.50;63.30;;;;;;5038072;28;20059;-79
2022/08/25 09:40:06;;;;;;;2.35;1.55;;;38.10;62.80;;;;;;5038237;28;20467;-79
2022/08/25 09:42:48;;;;;;;2.83;1.35;;;38.10;62.70;;;;;;5055676;28;20185;-79
2022/08/25 09:45:14;;;;;;;1.60;1.40;;;37.80;61.70;;;;;;5039344;28;20491;-79
2022/08/25 09:47:44;;;;;;;2.33;1.52;;;38.20;61.90;;;;;;5044427;28;20064;-79
2022/08/25 09:50:18;;;;;;;1.35;1.05;;;38.30;61.30;;;;;;5035492;28;20074;-79
2022/08/25 09:52:44;;;;;;;2.90;1.50;;;38.60;61.80;;;;;;5037987;28;20086;-79
2022/08/25 09:55:13;;;;;;;2.67;1.50;;;38.10;60.50;;;;;;5036128;28;20037;-81
2022/08/25 09:57:42;;;;;;;4.00;1.60;;;38.00;60.20;;;;;;5035755;28;20059;-83
2022/08/25 10:00:29;;;;;;;2.80;1.35;;;37.70;61.50;;;;;;5034147;28;20044;-82
2022/08/25 10:03:20;;;;;;;2.15;1.40;;;37.90;61.10;;;;;;5019104;28;20037;-81
2022/08/25 10:05:56;;;;;;;3.22;1.60;;;38.30;61.20;;;;;;5035854;28;20044;-81
2022/08/25 10:08:56;;;;;;;2.30;1.60;;;38.80;60.70;;;;;;5033718;28;20498;-81
2022/08/25 10:11:33;;;;;;;3.50;1.60;;;39.10;61.30;;;;;;5050547;28;20458;-81
2022/08/25 10:14:16;;;;;;;2.38;1.48;;;38.50;59.40;;;;;;5035853;28;20494;-81
2022/08/25 10:16:43;;;;;;;1.98;1.20;;;39.00;59.10;;;;;;5015298;28;20482;-82
2022/08/25 10:19:22;;;;;;;2.88;1.70;;;38.20;59.00;;;;;;5012039;28;20113;-81
2022/08/25 10:22:19;;;;;;;3.30;1.60;;;37.80;59.20;;;;;;5034496;28;20112;-82
2022/08/25 10:24:45;;;;;;;2.30;1.58;;;37.40;59.00;;;;;;5017397;28;20120;-82
2022/08/25 10:27:26;;;;;;;3.15;1.50;;;37.50;59.10;;;;;;5013156;28;20037;-79
2022/08/25 10:30:12;;;;;;;2.35;1.45;;;37.90;60.30;;;;;;5030702;28;20037;-79
2022/08/25 10:32:59;;;;;;;2.72;1.50;;;37.80;59.40;;;;;;5029265;28;20036;-80
2022/08/25 10:35:34;;;;;;;4.35;1.80;;;38.10;59.70;;;;;;5035281;28;20041;-80
2022/08/25 10:38:08;;;;;;;3.15;1.50;;;38.60;59.30;;;;;;5039482;28;20041;-80
2022/08/25 10:40:49;;;;;;;2.15;1.50;;;38.50;57.80;;;;;;5038848;28;20049;-80
2022/08/25 10:43:42;;;;;;;2.90;1.45;;;37.70;57.60;;;;;;5019948;28;20037;-80
2022/08/25 10:46:34;;;;;;;2.65;1.30;;;37.80;60.40;;;;;;5027335;28;20094;-80
2022/08/25 10:49:11;;;;;;;1.75;1.40;;;38.00;57.90;;;;;;5026990;28;20495;-80
2022/08/25 10:51:57;;;;;;;2.22;1.10;;;38.20;58.10;;;;;;5045052;28;20565;-80
2022/08/25 10:54:30;;;;;;;;;;;38.20;56.60;;;;;;5051861;28;20032;-80
2022/08/25 10:57:16;;;;;;;3.47;1.42;;;38.00;57.20;;;;;;5034236;28;20393;-80
2022/08/25 11:00:14;;;;;;;2.88;1.73;;;38.00;58.00;;;;;;5049202;28;20486;-80
2022/08/25 11:03:07;;;;;;;1.67;1.23;;;38.10;57.40;;;;;;5048941;28;20068;-79
2022/08/25 11:05:56;;;;;;;2.40;1.50;;;38.20;58.50;;;;;;5047928;28;20044;-80
2022/08/25 11:08:31;;;;;;;2.25;1.65;;;38.30;59.10;;;;;;5052190;28;20131;-80
2022/08/25 11:11:10;;;;;;;3.17;1.50;;;38.40;58.10;;;;;;5052573;28;20044;-80
2022/08/25 11:14:06;;;;;;;2.22;1.48;;;38.20;58.60;;;;;;5051918;28;20036;-80
2022/08/25 11:16:52;;;;;;;4.13;1.52;;;38.40;58.30;;;;;;5048992;28;20053;-79
2022/08/25 11:19:40;;;;;;;2.17;1.50;;;38.60;58.70;;;;;;5041997;28;20032;-82
2022/08/25 11:22:28;;;;;;;4.07;1.50;;;37.90;58.60;;;;;;5040203;28;20048;-82
2022/08/25 11:25:19;;;;;;;3.03;1.55;;;38.10;58.40;;;;;;5055723;28;20041;-82
2022/08/25 11:28:02;;;;;;;3.22;1.30;;;37.90;57.80;;;;;;5041444;28;20099;-82
2022/08/25 11:30:28;;;;;;;4.68;1.70;;;38.20;59.00;;;;;;5058430;28;20478;-82
2022/08/25 11:32:55;;;;;;;2.33;1.30;;;38.10;58.90;;;;;;5057182;28;20044;-82
2022/08/25 11:35:32;;;;;;;1.77;1.30;;;38.10;58.10;;;;;;5055219;28;20113;-82
2022/08/25 11:38:23;;;;;;;3.47;1.60;;;38.40;58.60;;;;;;5041098;28;20127;-82
2022/08/25 11:40:58;;;;;;;2.33;1.70;;;38.30;57.90;;;;;;5058021;28;20051;-82
2022/08/25 11:43:42;;;;;;;2.25;1.58;;;37.60;59.10;;;;;;5057063;28;20040;-82
2022/08/25 11:46:21;;;;;;;2.55;1.58;;;37.30;59.00;;;;;;5056345;28;20479;-82
2022/08/25 11:49:19;;;;;;;1.85;1.52;;;37.20;59.00;;;;;;5056530;28;20028;-82
2022/08/25 11:51:47;;;;;;;2.35;1.60;;;37.40;58.70;;;;;;5078518;22;20060;-80
2022/08/25 11:54:13;;;;;;;3.17;1.52;;;37.70;59.50;;;;;;5041030;28;20105;-79
2022/08/25 11:56:40;;;;;;;2.03;1.30;;;38.00;58.80;;;;;;5074353;28;20045;-80
2022/08/25 11:59:06;;;;;;;1.77;1.40;;;37.80;58.80;;;;;;5041176;28;20045;-79
2022/08/25 12:01:38;;;;;;;5.97;1.83;;;37.90;59.30;;;;;;5048684;28;20037;-79
2022/08/25 12:04:39;;;;;;;3.25;1.40;;;38.10;58.80;;;;;;5054286;28;20044;-79
2022/08/25 12:07:05;;;;;;;2.35;1.58;;;38.20;58.20;;;;;;5062162;28;20040;-81
2022/08/25 12:09:52;;;;;;;3.45;1.50;;;38.10;59.70;;;;;;5055298;28;20040;-81
2022/08/25 12:12:37;;;;;;;2.10;1.52;;;38.10;58.10;;;;;;5056575;28;20115;-81
2022/08/25 12:15:39;;;;;;;2.93;1.60;;;37.60;58.40;;;;;;5060274;28;20040;-80
2022/08/25 12:18:15;;;;;;;2.70;1.63;;;37.30;59.40;;;;;;5056241;28;20378;-81
2022/08/25 12:20:53;;;;;;;1.95;1.40;;;37.00;58.90;;;;;;5053567;28;20095;-80
2022/08/25 12:23:43;;;;;;;3.67;1.40;;;36.90;60.30;;;;;;5062975;28;20037;-81
2022/08/25 12:26:49;;;;;;;2.63;1.50;;;36.90;58.90;;;;;;5072397;28;20072;-80
2022/08/25 12:29:26;;;;;;;;;;;37.00;60.10;;;;;;5064905;28;20139;-80
2022/08/25 12:32:16;;;;;;;2.30;1.60;;;37.20;59.40;;;;;;5073608;28;19924;-79
2022/08/25 12:34:54;;;;;;;1.75;1.40;;;37.00;58.90;;;;;;5073428;28;20090;-79
2022/08/25 12:37:22;;;;;;;3.70;1.55;;;36.60;59.50;;;;;;5040483;28;20124;-80
2022/08/25 12:39:47;;;;;;;2.75;1.42;;;36.60;59.60;;;;;;5073360;28;20076;-80
2022/08/25 12:42:42;;;;;;;2.28;1.50;;;36.40;58.80;;;;;;5071824;28;20080;-80
2022/08/25 12:45:33;;;;;;;3.38;2.05;;;36.20;58.30;;;;;;5065570;28;20040;-80
2022/08/25 12:48:27;;;;;;;2.80;1.48;;;35.80;58.90;;;;;;5072485;28;20032;-80
2022/08/25 12:51:00;;;;;;;1.90;1.38;;;35.90;59.40;;;;;;5062408;28;20053;-80
2022/08/25 12:53:39;;;;;;;2.35;1.50;;;35.90;57.80;;;;;;5035148;28;20055;-80
2022/08/25 12:56:24;;;;;;;3.60;1.73;;;36.10;58.80;;;;;;5045234;28;20049;-81
2022/08/25 12:58:50;;;;;;;3.10;1.35;;;35.90;57.60;;;;;;5047073;28;20144;-79
2022/08/25 13:01:30;;;;;;;2.88;1.80;;;35.90;58.20;;;;;;5072325;28;20534;-78
2022/08/25 13:04:33;;;;;;;4.38;1.73;;;35.80;58.00;;;;;;5054239;28;20109;-79
2022/08/25 13:07:12;;;;;;;2.53;1.20;;;35.70;59.00;;;;;;5055856;28;20040;-78
2022/08/25 13:10:03;;;;;;;1.95;1.48;;;35.50;58.90;;;;;;5072934;28;20123;-78
2022/08/25 13:12:57;;;;;;;2.33;1.58;;;35.60;58.90;;;;;;5055251;28;20029;-79
2022/08/25 13:15:39;;;;;;;1.85;1.30;;;35.80;59.40;;;;;;5071651;28;20517;-80
2022/08/25 13:18:26;;;;;;;3.60;1.50;;;35.80;58.70;;;;;;5056294;28;20044;-80
2022/08/25 13:21:14;;;;;;;6.07;1.55;;;35.50;59.20;;;;;;5066939;28;20032;-79